ΕΜΥ, Εθνική Μετεωρολογική Υπηρεσία - Δελτία Καιρού, Προγνώσεις

ΑΕΡΟΝΑΥΤΙΛΙΑ

GREEK AIRPORTS CODES

LGKR 270550Z 00000KT CAVOK 13/12 Q1018 NOSIG =

EUROPEAN AIRPORTS CODES

LFPO 270600Z 17003KT 3000 MIFG FEW002 07/07 Q1025 TEMPO 3000BR=